Latest Weather Observations for Falls Creek

IDV60801

Issued at 8:02 pm EST Monday 22 April 2019 (issued every 10 minutes, with the page automatically refreshed every 10 minutes)

About weather observations | Map of weather stations | Latest weather observations for VIC | Other Formats
Station Details ID: 083084 Name: FALLS CREEK Lat: -36.87 Lon: 147.28 Height: 1765.0 m
Data from the previous 72 hours. | See also: Recent months at Falls Creek
Date/Time
EST
Temp
°C
App
Temp
°C
Dew
Point
°C
Rel
Hum
%
Delta-T
°C
Wind Press
QNH
hPa
Press
MSL
hPa
Rain since
9am
mm
Dir  Spd
km/h
Gust
km/h
Spd
kts
Gust
kts
22/08:00pm 7.5 5.2 7.4 99 0.1 ESE 9 13 5 7 1029.9 1027.1 0.2
22/07:30pm 7.4 5.1 7.3 99 0.1 SSE 9 13 5 7 1029.5 1026.7 0.2
22/07:00pm 7.7 4.7 7.6 99 0.1 SSE 13 17 7 9 1029.3 1026.5 0.2
22/06:30pm 7.8 4.4 7.7 99 0.1 SSE 15 20 8 11 1028.9 1026.1 0.2
22/06:00pm 8.0 5.0 7.9 99 0.1 SE 13 17 7 9 1028.6 1025.8 0.2
22/05:30pm 8.4 5.9 8.3 99 0.1 SE 11 13 6 7 1028.3 1025.5 0.0
22/05:00pm 8.7 6.3 8.6 99 0.1 SE 11 17 6 9 1028.0 1025.1 0.0
22/04:30pm 9.1 6.8 9.0 99 0.1 SE 11 13 6 7 1027.5 1024.6 0.0
22/04:00pm 9.1 7.1 8.8 98 0.2 SE 9 13 5 7 1027.5 1024.6 0.0
22/03:30pm 10.2 9.0 9.7 97 0.3 NE 6 9 3 5 1027.5 1024.6 0.0
22/03:00pm 10.6 9.2 9.5 93 0.6 N 7 11 4 6 1027.5 1024.6 0.0
22/02:30pm 11.7 10.2 9.3 85 1.3 NNW 7 15 4 8 1027.4 1024.5 0.0
22/02:00pm 12.2 10.3 9.0 81 1.8 NW 9 17 5 9 1027.2 1024.4 0.0
22/01:30pm 11.9 9.6 9.1 83 1.5 NNW 11 17 6 9 1027.2 1024.4 0.0
22/01:00pm 13.1 10.7 8.6 74 2.5 NNW 11 17 6 9 1027.0 1024.1 0.0
22/12:30pm 12.4 10.3 9.6 83 1.6 NNW 11 17 6 9 1027.1 1024.3 0.0
22/12:00pm 12.6 9.9 9.1 79 1.9 NNW 13 20 7 11 1027.1 1024.3 0.0
22/11:30am 12.9 9.8 9.0 77 2.2 NNE 15 22 8 12 1027.1 1024.3 0.0
22/11:00am 12.4 9.5 8.1 75 2.3 N 13 19 7 10 1027.1 1024.3 0.0
22/10:30am 11.4 9.2 7.9 79 1.9 NNE 9 13 5 7 1027.1 1024.3 0.0
22/10:00am 11.0 8.7 7.5 79 1.9 NNE 9 11 5 6 1027.1 1024.3 0.0
22/09:30am 10.4 8.0 6.9 79 1.8 NNE 9 15 5 8 1027.0 1024.1 0.0
22/09:00am 10.0 7.5 6.7 80 1.7 NNE 9 19 5 10 1027.1 1024.3 6.8
22/08:30am 9.4 5.7 6.5 82 1.5 NNE 15 19 8 10 1027.0 1024.1 6.8
22/08:00am 9.0 6.6 6.8 86 1.1 NNE 9 11 5 6 1026.9 1024.0 6.8
22/07:30am 8.4 5.9 6.7 89 0.9 N 9 11 5 6 1026.9 1024.0 6.8
22/07:00am 8.2 6.2 7.0 92 0.6 NW 7 11 4 6 1026.8 1023.9 6.8
22/06:30am 8.2 5.5 7.3 94 0.5 NW 11 13 6 7 1026.7 1023.8 6.8
22/06:00am 8.3 5.2 7.2 93 0.6 NNW 13 19 7 10 1026.3 1023.4 6.8
22/05:30am 8.0 4.9 7.4 96 0.3 NNW 13 20 7 11 1026.2 1023.3 6.8
22/05:00am 8.0 4.4 6.9 93 0.6 NNW 15 20 8 11 1026.1 1023.2 6.8
22/04:30am 7.9 4.9 7.6 98 0.2 NNW 13 17 7 9 1026.2 1023.3 6.8
22/04:00am 8.3 5.4 8.0 98 0.2 NNW 13 19 7 10 1026.1 1023.2 6.8
22/03:30am 8.0 5.0 7.7 98 0.2 NNW 13 20 7 11 1026.2 1023.3 6.8
22/03:00am 8.4 4.2 7.3 93 0.6 NNW 19 24 10 13 1026.1 1023.2 6.8
22/02:30am 8.2 4.8 7.8 97 0.2 NW 15 20 8 11 1026.3 1023.4 6.8
22/02:00am 7.8 5.5 7.4 97 0.2 NNW 9 19 5 10 1026.8 1023.9 6.4
22/01:30am 8.0 4.1 7.2 95 0.4 NW 17 26 9 14 1027.0 1024.1 5.6
22/01:00am 8.5 4.5 6.6 88 1.0 WNW 17 28 9 15 1026.7 1023.8 5.2
22/12:30am 8.6 5.4 6.9 89 0.9 W 13 22 7 12 1026.7 1023.8 5.0
22/12:00am 8.5 5.0 7.3 92 0.6 W 15 24 8 13 1026.9 1024.0 5.0
 
Date/Time
EST
Temp
°C
App
Temp
°C
Dew
Point
°C
Rel
Hum
%
Delta-T
°C
Wind Press
QNH
hPa
Press
MSL
hPa
Rain since
9am
mm
Dir  Spd
km/h
Gust
km/h
Spd
kts
Gust
kts
21/11:30pm 7.9 5.9 7.1 95 0.4 W 7 15 4 8 1027.1 1024.3 4.8
21/11:00pm 8.0 3.7 7.2 95 0.4 W 19 28 10 15 1027.4 1024.5 3.8
21/10:30pm 8.0 2.5 7.4 96 0.3 WSW 26 37 14 20 1027.7 1024.9 3.4
21/10:00pm 8.2 3.4 7.4 95 0.4 WSW 22 37 12 20 1026.9 1024.0 1.0
21/09:38pm 9.5 6.4 7.4 87 1.1 WNW 13 43 7 23 1026.8 1023.9 0.0
21/09:30pm 10.7 8.5 9.5 92 0.7 N 11 15 6 8 1026.8 1023.9 0.0
21/09:00pm 10.4 8.2 9.5 94 0.5 N 11 13 6 7 1026.8 1023.9 0.0
21/08:30pm 10.4 8.2 9.5 94 0.5 N 11 15 6 8 1026.9 1024.0 0.0
21/08:00pm 10.3 8.4 9.2 93 0.6 NNE 9 9 5 5 1026.9 1024.0 0.0
21/07:30pm 10.5 9.0 9.1 91 0.8 NNE 7 9 4 5 1026.8 1023.9 0.0
21/07:00pm 10.6 9.2 9.0 90 0.9 NNE 6 7 3 4 1026.5 1023.7 0.0
21/06:30pm 10.5 9.0 9.1 91 0.8 N 7 11 4 6 1026.4 1023.5 0.0
21/06:00pm 10.6 8.4 9.2 91 0.8 N 11 13 6 7 1026.4 1023.5 0.0
21/05:30pm 10.7 8.5 9.3 91 0.8 N 11 15 6 8 1026.4 1023.5 0.0
21/05:00pm 10.7 8.2 9.6 93 0.6 NNW 13 17 7 9 1026.5 1023.7 0.0
21/04:30pm 11.1 7.7 9.2 88 1.0 NNW 17 24 9 13 1026.5 1023.7 0.0
21/04:00pm 11.3 8.0 9.6 89 0.9 NNW 17 24 9 13 1026.4 1023.5 0.0
21/03:30pm 11.5 7.8 9.4 87 1.2 NNW 19 28 10 15 1026.3 1023.4 0.0
21/03:00pm 12.0 8.1 9.6 85 1.3 NNW 20 32 11 17 1026.2 1023.3 0.0
21/02:30pm 12.0 7.6 9.0 82 1.7 NNW 22 35 12 19 1026.3 1023.4 0.0
21/02:00pm 12.7 7.2 9.0 78 2.0 NNW 28 35 15 19 1026.4 1023.5 0.0
21/01:30pm 12.7 8.4 9.5 81 1.8 NNW 22 33 12 18 1026.5 1023.7 0.0
21/01:00pm 12.7 8.4 9.3 80 1.9 NNW 22 39 12 21 1026.8 1023.9 0.0
21/12:30pm 11.9 6.5 9.5 85 1.3 NNW 28 44 15 24 1026.9 1024.0 0.0
21/12:08pm 11.2 5.8 9.6 90 0.9 NNW 28 46 15 25 1027.2 1024.4 0.0
21/12:00pm 11.7 5.6 9.6 87 1.2 NNW 32 46 17 25 1027.2 1024.4 0.0
21/11:30am 10.6 5.3 9.7 94 0.5 NNW 28 44 15 24 1027.4 1024.5 0.0
21/11:00am 10.8 5.1 9.7 93 0.6 NNW 30 41 16 22 1027.4 1024.5 0.0
21/10:30am 10.4 5.0 9.5 94 0.5 NNW 28 41 15 22 1027.5 1024.6 0.0
21/10:00am 10.2 4.7 9.3 94 0.5 NNW 28 39 15 21 1027.7 1024.9 0.0
21/09:30am 9.9 4.4 9.1 95 0.4 NNW 28 39 15 21 1027.7 1024.9 0.0
21/09:00am 9.8 5.0 8.9 94 0.5 NNW 24 35 13 19 1027.7 1024.9 0.0
21/08:30am 9.6 3.9 8.4 92 0.6 NNW 28 35 15 19 1027.7 1024.9 0.0
21/08:00am 9.7 3.2 8.0 89 0.9 NNW 32 43 17 23 1027.4 1024.5 0.0
21/07:30am 9.6 2.9 7.5 87 1.1 NNW 32 41 17 22 1027.0 1024.1 0.0
21/07:00am 9.3 2.5 6.7 84 1.3 NNW 32 46 17 25 1026.5 1023.7 0.0
21/06:30am 9.7 2.5 6.1 78 1.8 NNW 33 46 18 25 1026.3 1023.4 0.0
21/06:00am 9.6 2.1 6.3 80 1.7 NNW 35 43 19 23 1026.2 1023.3 0.0
21/05:30am 9.6 2.6 6.1 79 1.8 NNW 32 43 17 23 1026.2 1023.3 0.0
21/05:00am 9.9 3.0 6.3 78 1.8 NNW 32 43 17 23 1026.2 1023.3 0.0
21/04:30am 9.9 3.0 6.4 79 1.8 NNW 32 39 17 21 1026.4 1023.5 0.0
21/04:00am 9.7 3.1 6.1 78 1.8 NNW 30 39 16 21 1026.2 1023.3 0.0
21/03:30am 9.9 4.0 5.9 76 2.0 NNW 26 35 14 19 1026.3 1023.4 0.0
21/03:00am 10.1 4.2 5.9 75 2.1 NNW 26 33 14 18 1026.2 1023.3 0.0
21/02:30am 10.1 3.8 5.9 75 2.1 NNW 28 37 15 20 1026.5 1023.7 0.0
21/02:00am 10.4 4.2 6.0 74 2.2 NNW 28 37 15 20 1026.7 1023.8 0.0
21/01:30am 10.4 4.2 6.0 74 2.3 NNW 28 37 15 20 1026.8 1023.9 0.0
21/01:00am 10.5 3.9 6.1 74 2.3 NNW 30 39 16 21 1027.0 1024.1 0.0
21/12:30am 10.4 4.2 6.2 75 2.2 NNW 28 35 15 19 1027.1 1024.3 0.0
21/12:00am 10.4 3.8 6.2 75 2.2 NNW 30 39 16 21 1027.1 1024.3 0.0
 
Date/Time
EST
Temp
°C
App
Temp
°C
Dew
Point
°C
Rel
Hum
%
Delta-T
°C
Wind Press
QNH
hPa
Press
MSL
hPa
Rain since
9am
mm
Dir  Spd
km/h
Gust
km/h
Spd
kts
Gust
kts
20/11:30pm 10.2 4.8 6.2 76 2.1 NNW 24 35 13 19 1027.5 1024.6 0.0
20/11:00pm 10.2 4.8 6.2 76 2.0 NNW 24 32 13 17 1027.8 1025.0 0.0
20/10:30pm 10.3 5.3 6.5 77 2.0 NNW 22 32 12 17 1028.0 1025.1 0.0
20/10:00pm 10.1 6.1 6.6 79 1.8 NNW 17 20 9 11 1028.1 1025.3 0.0
20/09:30pm 9.9 7.1 6.8 81 1.6 NNW 11 17 6 9 1028.2 1025.4 0.0
20/09:00pm 10.0 7.1 6.7 80 1.7 NNW 11 15 6 8 1028.4 1025.6 0.0
20/08:30pm 10.2 7.3 6.7 79 1.8 NNW 11 15 6 8 1028.4 1025.6 0.0
20/08:00pm 10.0 7.1 6.3 78 1.9 NNW 11 13 6 7 1028.3 1025.5 0.0
20/07:30pm 10.2 7.8 6.9 80 1.7 NNW 9 13 5 7 1028.3 1025.5 0.0
20/07:00pm 10.3 7.8 6.6 78 1.9 NNW 9 13 5 7 1028.3 1025.5 0.0
20/06:30pm 10.4 7.9 6.7 78 1.9 NNW 9 13 5 7 1028.3 1025.5 0.0
20/06:00pm 10.5 8.1 6.8 78 1.9 NNW 9 13 5 7 1028.2 1025.4 0.0
20/05:30pm 11.1 9.1 7.0 76 2.2 NNW 7 11 4 6 1028.1 1025.3 0.0
20/05:00pm 12.1 9.4 7.2 72 2.6 NNW 11 15 6 8 1028.1 1025.3 0.0
20/04:30pm 13.0 10.3 7.2 68 3.1 NNW 11 17 6 9 1028.1 1025.3 0.0
20/04:00pm 14.5 12.3 7.8 64 3.6 NNW 9 17 5 9 1028.2 1025.4 0.0
20/03:30pm 14.2 11.5 7.5 64 3.6 NNW 11 19 6 10 1028.4 1025.6 0.0
20/03:00pm 14.7 11.9 8.4 66 3.5 NNW 13 20 7 11 1028.7 1025.9 0.0
20/02:30pm 14.0 10.3 8.0 67 3.3 N 17 28 9 15 1028.6 1025.8 0.0
20/02:00pm 14.1 10.1 8.1 67 3.3 N 19 33 10 18 1028.7 1025.9 0.0
20/01:30pm 13.8 9.5 6.9 63 3.7 N 19 28 10 15 1028.9 1026.1 0.0
20/01:00pm 13.7 8.7 6.6 62 3.7 N 22 33 12 18 1029.0 1026.2 0.0
20/12:30pm 14.1 9.3 7.2 63 3.7 N 22 35 12 19 1029.4 1026.6 0.0
20/12:00pm 13.8 8.9 6.9 63 3.7 N 22 33 12 18 1029.7 1027.0 0.0
20/11:30am 14.0 9.6 7.3 64 3.6 N 20 33 11 18 1030.1 1027.4 0.0
20/11:00am 13.5 9.1 7.3 66 3.3 N 20 32 11 17 1030.2 1027.5 0.0
20/10:30am 13.3 8.9 7.3 67 3.2 N 20 32 11 17 1030.3 1027.6 0.0
20/10:00am 13.1 8.8 7.8 70 2.9 N 20 33 11 18 1030.3 1027.6 0.0
20/09:30am 12.7 9.2 7.4 70 2.8 N 15 22 8 12 1030.6 1027.9 0.0
20/09:00am 12.2 8.7 7.3 72 2.6 NNW 15 22 8 12 1030.6 1027.9 0.0
20/08:30am 11.7 8.1 6.6 71 2.7 NW 15 22 8 12 1030.6 1027.9 0.0
20/08:00am 10.7 7.4 6.6 76 2.1 NNW 13 22 7 12 1030.3 1027.6 0.0
20/07:30am 9.9 5.8 6.4 79 1.8 NNW 17 24 9 13 1030.0 1027.2 0.0
20/07:00am 9.1 4.7 6.4 83 1.4 NNW 19 26 10 14 1029.9 1027.1 0.0
20/06:30am 8.7 4.2 6.3 85 1.2 NW 19 24 10 13 1029.7 1027.0 0.0
20/06:00am 9.0 4.4 6.4 84 1.3 NW 20 28 11 15 1029.6 1026.9 0.0
20/05:30am 9.0 4.4 6.3 83 1.4 NNW 20 26 11 14 1029.4 1026.6 0.0
20/05:00am 9.0 4.5 6.3 83 1.4 NW 19 24 10 13 1029.3 1026.5 0.0
20/04:30am 8.9 4.1 5.8 81 1.6 NW 20 26 11 14 1029.1 1026.4 0.0
20/04:00am 9.0 4.3 5.9 81 1.6 NW 20 26 11 14 1029.3 1026.5 0.0
20/03:30am 9.0 4.3 6.1 82 1.5 NW 20 26 11 14 1029.3 1026.5 0.0
20/03:00am 9.1 5.0 6.4 83 1.4 NNW 17 24 9 13 1029.4 1026.6 0.0
20/02:30am 9.2 4.8 6.5 83 1.4 NW 19 28 10 15 1029.6 1026.9 0.0
20/02:00am 9.5 4.9 6.4 81 1.6 NNW 20 28 11 15 1029.9 1027.1 0.0
20/01:30am 9.4 5.0 6.5 82 1.5 NNW 19 24 10 13 1030.0 1027.2 0.0
20/01:00am 9.3 5.3 6.6 83 1.4 NNW 17 24 9 13 1030.1 1027.4 0.0
20/12:30am 9.4 5.4 6.5 82 1.5 NNW 17 22 9 12 1030.2 1027.5 0.0
20/12:00am 9.3 5.2 6.4 82 1.5 NNW 17 22 9 12 1030.3 1027.6 0.0
 
Date/Time
EST
Temp
°C
App
Temp
°C
Dew
Point
°C
Rel
Hum
%
Delta-T
°C
Wind Press
QNH
hPa
Press
MSL
hPa
Rain since
9am
mm
Dir  Spd
km/h
Gust
km/h
Spd
kts
Gust
kts
19/11:30pm 9.3 5.0 6.9 85 1.2 NNW 19 22 10 12 1030.5 1027.7 0.0
19/11:00pm 9.4 4.9 6.8 84 1.3 NNW 20 24 11 13 1030.6 1027.9 0.0
19/10:30pm 9.0 5.4 6.8 86 1.1 NNW 15 19 8 10 1030.7 1028.0 0.0
19/10:00pm 9.3 5.3 6.7 84 1.3 NNW 17 22 9 12 1030.8 1028.1 0.0
19/09:30pm 9.3 5.3 6.6 83 1.4 NNW 17 22 9 12 1030.9 1028.2 0.0
19/09:00pm 9.3 5.3 6.6 83 1.4 NNW 17 19 9 10 1030.8 1028.1 0.0
19/08:30pm 9.4 5.2 7.3 87 1.1 NNW 19 22 10 12 1030.8 1028.1 0.0

Other formats

Comma delimited format used in spreadsheet applications
http://www.bom.gov.au/fwo/IDV60801/IDV60801.94903.axf

JavaScript Object Notation format (JSON) in row-major order
http://www.bom.gov.au/fwo/IDV60801/IDV60801.94903.json

Data quality

Most of these data are generated automatically and are frequently updated. Quality checks on data are not normally performed. It is possible for incorrect values to appear. Refer to information at About Latest Weather Observations and please check the disclaimer before using these data.